sensor_id;sensor_type;location;lat;lon;timestamp;pressure;altitude;pressure_sealevel;temperature;humidity
74230;BME280;62589;12.568;99.958;2023-02-01T00:02:13;100824.47;;;29.25;33.61
74230;BME280;62589;12.568;99.958;2023-02-01T00:04:39;100821.00;;;29.28;33.73
74230;BME280;62589;12.568;99.958;2023-02-01T00:07:05;100830.44;;;29.27;33.82
74230;BME280;62589;12.568;99.958;2023-02-01T00:09:32;100834.00;;;29.28;33.43
74230;BME280;62589;12.568;99.958;2023-02-01T00:11:58;100836.78;;;29.28;33.68
74230;BME280;62589;12.568;99.958;2023-02-01T00:14:28;100834.47;;;29.30;33.37
74230;BME280;62589;12.568;99.958;2023-02-01T00:16:54;100842.38;;;29.31;33.61
74230;BME280;62589;12.568;99.958;2023-02-01T00:19:21;100844.72;;;29.29;33.43
74230;BME280;62589;12.568;99.958;2023-02-01T00:21:47;100834.16;;;29.35;33.52
74230;BME280;62589;12.568;99.958;2023-02-01T00:24:14;100841.72;;;29.38;33.14
74230;BME280;62589;12.568;99.958;2023-02-01T00:26:43;100844.50;;;29.38;33.07
74230;BME280;62589;12.568;99.958;2023-02-01T00:29:15;100852.00;;;29.37;33.40
74230;BME280;62589;12.568;99.958;2023-02-01T00:31:43;100858.88;;;29.44;33.06
74230;BME280;62589;12.568;99.958;2023-02-01T00:34:14;100867.69;;;29.49;33.32
74230;BME280;62589;12.568;99.958;2023-02-01T00:36:42;100853.13;;;29.52;33.15
74230;BME280;62589;12.568;99.958;2023-02-01T00:39:12;100862.75;;;29.58;33.02
74230;BME280;62589;12.568;99.958;2023-02-01T00:41:39;100859.69;;;29.63;32.82
74230;BME280;62589;12.568;99.958;2023-02-01T00:44:37;100860.25;;;29.72;32.99
74230;BME280;62589;12.568;99.958;2023-02-01T00:47:04;100859.09;;;29.73;32.94
74230;BME280;62589;12.568;99.958;2023-02-01T00:49:30;100873.53;;;29.83;32.65
74230;BME280;62589;12.568;99.958;2023-02-01T00:51:57;100876.81;;;29.88;32.80
74230;BME280;62589;12.568;99.958;2023-02-01T00:54:24;100878.53;;;29.96;32.14
74230;BME280;62589;12.568;99.958;2023-02-01T00:56:50;100883.47;;;30.03;32.46
74230;BME280;62589;12.568;99.958;2023-02-01T00:59:16;100897.81;;;30.08;32.49
74230;BME280;62589;12.568;99.958;2023-02-01T01:01:43;100900.69;;;30.16;32.15
74230;BME280;62589;12.568;99.958;2023-02-01T01:04:09;100901.66;;;30.23;31.94
74230;BME280;62589;12.568;99.958;2023-02-01T01:06:36;100914.03;;;30.29;31.91
74230;BME280;62589;12.568;99.958;2023-02-01T01:09:05;100919.41;;;30.41;32.33
74230;BME280;62589;12.568;99.958;2023-02-01T01:11:35;100923.47;;;30.48;32.25
74230;BME280;62589;12.568;99.958;2023-02-01T01:14:04;100926.47;;;30.58;32.13
74230;BME280;62589;12.568;99.958;2023-02-01T01:16:33;100927.75;;;30.64;31.81
74230;BME280;62589;12.568;99.958;2023-02-01T01:19:00;100935.47;;;30.74;31.70
74230;BME280;62589;12.568;99.958;2023-02-01T01:21:27;100935.22;;;30.83;31.48
74230;BME280;62589;12.568;99.958;2023-02-01T01:23:53;100931.41;;;30.91;31.52
74230;BME280;62589;12.568;99.958;2023-02-01T01:26:22;100934.72;;;31.00;31.43
74230;BME280;62589;12.568;99.958;2023-02-01T01:28:49;100940.81;;;31.09;31.30
74230;BME280;62589;12.568;99.958;2023-02-01T01:31:18;100941.75;;;31.17;30.82
74230;BME280;62589;12.568;99.958;2023-02-01T01:33:48;100953.00;;;31.28;31.33
74230;BME280;62589;12.568;99.958;2023-02-01T01:36:17;100956.72;;;31.39;30.93
74230;BME280;62589;12.568;99.958;2023-02-01T01:38:45;100964.88;;;31.51;30.91
74230;BME280;62589;12.568;99.958;2023-02-01T01:41:17;100966.53;;;31.59;31.20
74230;BME280;62589;12.568;99.958;2023-02-01T01:43:55;100983.81;;;31.72;31.05
74230;BME280;62589;12.568;99.958;2023-02-01T01:46:26;100995.03;;;31.79;31.10
74230;BME280;62589;12.568;99.958;2023-02-01T01:49:06;100998.69;;;31.87;31.24
74230;BME280;62589;12.568;99.958;2023-02-01T01:51:46;101000.84;;;31.97;30.99
74230;BME280;62589;12.568;99.958;2023-02-01T01:54:34;101005.72;;;32.07;31.31
74230;BME280;62589;12.568;99.958;2023-02-01T01:57:11;101011.31;;;32.10;31.17
74230;BME280;62589;12.568;99.958;2023-02-01T01:59:42;101009.44;;;32.18;31.47
74230;BME280;62589;12.568;99.958;2023-02-01T02:02:13;101022.25;;;32.26;31.54
74230;BME280;62589;12.568;99.958;2023-02-01T02:04:40;101024.75;;;32.35;31.41
74230;BME280;62589;12.568;99.958;2023-02-01T02:07:29;101022.56;;;32.51;31.52
74230;BME280;62589;12.568;99.958;2023-02-01T02:09:57;101029.38;;;32.57;31.61
74230;BME280;62589;12.568;99.958;2023-02-01T02:12:30;101029.44;;;32.64;31.36
74230;BME280;62589;12.568;99.958;2023-02-01T02:14:57;101030.78;;;32.74;31.55
74230;BME280;62589;12.568;99.958;2023-02-01T02:18:05;101038.06;;;32.89;31.55
74230;BME280;62589;12.568;99.958;2023-02-01T02:26:34;101044.72;;;33.18;32.93
74230;BME280;62589;12.568;99.958;2023-02-01T02:29:26;101045.25;;;33.31;32.78
74230;BME280;62589;12.568;99.958;2023-02-01T02:35:25;101056.88;;;33.40;32.28
74230;BME280;62589;12.568;99.958;2023-02-01T02:43:49;101064.59;;;33.64;33.08
74230;BME280;62589;12.568;99.958;2023-02-01T02:46:40;101078.16;;;33.66;32.33
74230;BME280;62589;12.568;99.958;2023-02-01T02:52:42;101075.09;;;33.82;31.67
74230;BME280;62589;12.568;99.958;2023-02-01T02:55:26;101075.13;;;33.89;31.65
74230;BME280;62589;12.568;99.958;2023-02-01T02:57:56;101073.97;;;33.93;31.63
74230;BME280;62589;12.568;99.958;2023-02-01T03:00:37;101072.03;;;34.01;31.40
74230;BME280;62589;12.568;99.958;2023-02-01T03:03:17;101072.09;;;34.08;31.06
74230;BME280;62589;12.568;99.958;2023-02-01T03:05:59;101072.50;;;34.13;30.27
74230;BME280;62589;12.568;99.958;2023-02-01T03:08:30;101071.34;;;34.22;29.84
74230;BME280;62589;12.568;99.958;2023-02-01T03:11:07;101077.00;;;34.32;29.35
74230;BME280;62589;12.568;99.958;2023-02-01T03:13:49;101075.44;;;34.42;29.06
74230;BME280;62589;12.568;99.958;2023-02-01T03:16:28;101077.84;;;34.51;29.27
74230;BME280;62589;12.568;99.958;2023-02-01T03:19:24;101077.91;;;34.65;29.44
74230;BME280;62589;12.568;99.958;2023-02-01T03:22:01;101071.97;;;34.70;29.16
74230;BME280;62589;12.568;99.958;2023-02-01T03:27:18;101069.25;;;34.88;28.91
74230;BME280;62589;12.568;99.958;2023-02-01T03:30:06;101065.28;;;34.99;28.79
74230;BME280;62589;12.568;99.958;2023-02-01T03:32:36;101056.09;;;34.99;28.29
74230;BME280;62589;12.568;99.958;2023-02-01T03:35:15;101054.13;;;35.06;28.55
74230;BME280;62589;12.568;99.958;2023-02-01T03:37:42;101050.53;;;35.06;28.83
74230;BME280;62589;12.568;99.958;2023-02-01T03:40:10;101057.72;;;35.03;29.25
74230;BME280;62589;12.568;99.958;2023-02-01T03:42:46;101050.94;;;35.01;29.78
74230;BME280;62589;12.568;99.958;2023-02-01T03:45:35;101053.72;;;35.08;30.44
74230;BME280;62589;12.568;99.958;2023-02-01T03:48:06;101048.56;;;35.06;31.27
74230;BME280;62589;12.568;99.958;2023-02-01T03:50:36;101042.19;;;35.09;31.32
74230;BME280;62589;12.568;99.958;2023-02-01T03:53:14;101042.94;;;35.13;31.48
74230;BME280;62589;12.568;99.958;2023-02-01T03:55:42;101040.56;;;35.23;31.56
74230;BME280;62589;12.568;99.958;2023-02-01T03:58:12;101030.59;;;35.25;31.36
74230;BME280;62589;12.568;99.958;2023-02-01T04:00:39;101028.25;;;35.31;31.41
74230;BME280;62589;12.568;99.958;2023-02-01T04:03:06;101025.44;;;35.38;30.50
74230;BME280;62589;12.568;99.958;2023-02-01T04:05:33;101029.44;;;35.44;30.66
74230;BME280;62589;12.568;99.958;2023-02-01T04:08:00;101019.84;;;35.52;30.91
74230;BME280;62589;12.568;99.958;2023-02-01T04:10:27;101019.44;;;35.57;30.89
74230;BME280;62589;12.568;99.958;2023-02-01T04:12:53;101020.63;;;35.63;30.85
74230;BME280;62589;12.568;99.958;2023-02-01T04:15:19;101013.44;;;35.69;30.68
74230;BME280;62589;12.568;99.958;2023-02-01T04:17:46;101005.47;;;35.71;30.84
74230;BME280;62589;12.568;99.958;2023-02-01T04:20:15;101004.22;;;35.76;30.79
74230;BME280;62589;12.568;99.958;2023-02-01T04:22:42;101001.44;;;35.83;31.39
74230;BME280;62589;12.568;99.958;2023-02-01T04:25:09;101004.63;;;35.89;31.06
74230;BME280;62589;12.568;99.958;2023-02-01T04:27:35;100994.66;;;35.88;31.43
74230;BME280;62589;12.568;99.958;2023-02-01T04:30:03;100995.81;;;35.97;30.91
74230;BME280;62589;12.568;99.958;2023-02-01T04:32:30;101000.59;;;36.00;30.58
74230;BME280;62589;12.568;99.958;2023-02-01T04:34:59;100997.00;;;36.03;30.69
74230;BME280;62589;12.568;99.958;2023-02-01T04:37:25;101001.38;;;36.08;30.70
74230;BME280;62589;12.568;99.958;2023-02-01T04:39:52;100991.38;;;36.14;30.51
74230;BME280;62589;12.568;99.958;2023-02-01T04:42:18;100988.56;;;36.14;30.16
74230;BME280;62589;12.568;99.958;2023-02-01T04:44:54;100988.97;;;36.16;30.00
74230;BME280;62589;12.568;99.958;2023-02-01T04:47:20;100977.75;;;36.20;29.93
74230;BME280;62589;12.568;99.958;2023-02-01T04:49:47;100970.13;;;36.24;29.74
74230;BME280;62589;12.568;99.958;2023-02-01T04:52:13;100975.75;;;36.27;29.95
74230;BME280;62589;12.568;99.958;2023-02-01T04:54:39;100963.75;;;36.27;29.24
74230;BME280;62589;12.568;99.958;2023-02-01T04:57:05;100961.75;;;36.31;29.56
74230;BME280;62589;12.568;99.958;2023-02-01T04:59:32;100952.94;;;36.36;29.82
74230;BME280;62589;12.568;99.958;2023-02-01T05:01:58;100957.34;;;36.37;29.84
74230;BME280;62589;12.568;99.958;2023-02-01T05:04:24;100940.56;;;36.37;30.17
74230;BME280;62589;12.568;99.958;2023-02-01T05:06:51;100940.09;;;36.42;29.59
74230;BME280;62589;12.568;99.958;2023-02-01T05:09:23;100931.31;;;36.43;29.94
74230;BME280;62589;12.568;99.958;2023-02-01T05:11:53;100932.50;;;36.46;29.99
74230;BME280;62589;12.568;99.958;2023-02-01T05:14:31;100922.50;;;36.48;29.88
74230;BME280;62589;12.568;99.958;2023-02-01T05:16:57;100918.06;;;36.51;29.33
74230;BME280;62589;12.568;99.958;2023-02-01T05:19:23;100912.84;;;36.57;29.40
74230;BME280;62589;12.568;99.958;2023-02-01T05:21:50;100903.25;;;36.58;29.08
74230;BME280;62589;12.568;99.958;2023-02-01T05:24:16;100901.66;;;36.57;29.09
74230;BME280;62589;12.568;99.958;2023-02-01T05:26:47;100897.22;;;36.59;28.29
74230;BME280;62589;12.568;99.958;2023-02-01T05:29:14;100882.41;;;36.62;28.70
74230;BME280;62589;12.568;99.958;2023-02-01T05:31:41;100884.38;;;36.69;28.17
74230;BME280;62589;12.568;99.958;2023-02-01T05:34:09;100874.78;;;36.70;28.17
74230;BME280;62589;12.568;99.958;2023-02-01T05:36:37;100874.78;;;36.73;28.12
74230;BME280;62589;12.568;99.958;2023-02-01T05:39:03;100860.38;;;36.75;28.04
74230;BME280;62589;12.568;99.958;2023-02-01T05:41:30;100854.75;;;36.78;28.06
74230;BME280;62589;12.568;99.958;2023-02-01T05:43:56;100852.28;;;36.84;27.71
74230;BME280;62589;12.568;99.958;2023-02-01T05:46:22;100848.28;;;36.85;27.50
74230;BME280;62589;12.568;99.958;2023-02-01T05:48:49;100842.28;;;36.83;26.99
74230;BME280;62589;12.568;99.958;2023-02-01T05:51:15;100844.72;;;36.81;26.54
74230;BME280;62589;12.568;99.958;2023-02-01T05:53:41;100833.94;;;36.79;26.82
74230;BME280;62589;12.568;99.958;2023-02-01T05:56:08;100833.53;;;36.81;27.77
74230;BME280;62589;12.568;99.958;2023-02-01T05:58:34;100821.59;;;36.77;27.06
74230;BME280;62589;12.568;99.958;2023-02-01T06:01:01;100816.34;;;36.79;27.37
74230;BME280;62589;12.568;99.958;2023-02-01T06:03:28;100807.13;;;36.82;27.44
74230;BME280;62589;12.568;99.958;2023-02-01T06:05:54;100799.91;;;36.85;27.25
74230;BME280;62589;12.568;99.958;2023-02-01T06:08:21;100793.50;;;36.88;27.82
74230;BME280;62589;12.568;99.958;2023-02-01T06:10:50;100787.06;;;36.91;28.35
74230;BME280;62589;12.568;99.958;2023-02-01T06:13:16;100779.06;;;36.93;27.53
74230;BME280;62589;12.568;99.958;2023-02-01T06:15:42;100773.84;;;36.95;27.14
74230;BME280;62589;12.568;99.958;2023-02-01T06:18:09;100764.72;;;36.87;26.74
74230;BME280;62589;12.568;99.958;2023-02-01T06:20:36;100755.56;;;36.83;26.04
74230;BME280;62589;12.568;99.958;2023-02-01T06:23:02;100759.63;;;36.78;26.02
74230;BME280;62589;12.568;99.958;2023-02-01T06:25:30;100745.25;;;36.76;25.73
74230;BME280;62589;12.568;99.958;2023-02-01T06:28:00;100743.19;;;36.80;25.97
74230;BME280;62589;12.568;99.958;2023-02-01T06:30:27;100741.97;;;36.81;26.12
74230;BME280;62589;12.568;99.958;2023-02-01T06:32:53;100728.38;;;36.83;26.40
74230;BME280;62589;12.568;99.958;2023-02-01T06:35:20;100725.16;;;36.85;25.90
74230;BME280;62589;12.568;99.958;2023-02-01T06:37:46;100717.94;;;36.88;26.29
74230;BME280;62589;12.568;99.958;2023-02-01T06:40:13;100707.53;;;36.88;26.16
74230;BME280;62589;12.568;99.958;2023-02-01T06:42:39;100700.34;;;36.87;26.18
74230;BME280;62589;12.568;99.958;2023-02-01T06:45:06;100689.91;;;36.91;26.09
74230;BME280;62589;12.568;99.958;2023-02-01T06:47:33;100684.69;;;36.93;26.26
74230;BME280;62589;12.568;99.958;2023-02-01T06:49:59;100672.28;;;36.94;25.77
74230;BME280;62589;12.568;99.958;2023-02-01T06:52:26;100665.94;;;36.90;25.56
74230;BME280;62589;12.568;99.958;2023-02-01T06:54:52;100662.34;;;36.90;24.75
74230;BME280;62589;12.568;99.958;2023-02-01T06:57:19;100660.72;;;36.92;25.49
74230;BME280;62589;12.568;99.958;2023-02-01T06:59:45;100653.22;;;36.86;24.94
74230;BME280;62589;12.568;99.958;2023-02-01T07:02:12;100642.84;;;36.82;25.72
74230;BME280;62589;12.568;99.958;2023-02-01T07:04:38;100635.63;;;36.85;25.44
74230;BME280;62589;12.568;99.958;2023-02-01T07:07:04;100630.03;;;36.85;26.09
74230;BME280;62589;12.568;99.958;2023-02-01T07:09:31;100631.63;;;36.86;26.20
74230;BME280;62589;12.568;99.958;2023-02-01T07:11:57;100614.41;;;36.88;26.23
74230;BME280;62589;12.568;99.958;2023-02-01T07:14:23;100620.00;;;36.88;26.27
74230;BME280;62589;12.568;99.958;2023-02-01T07:16:50;100613.19;;;36.89;26.18
74230;BME280;62589;12.568;99.958;2023-02-01T07:19:16;100604.00;;;36.88;26.27
74230;BME280;62589;12.568;99.958;2023-02-01T07:21:43;100596.38;;;36.92;26.30
74230;BME280;62589;12.568;99.958;2023-02-01T07:24:09;100583.97;;;36.93;26.19
74230;BME280;62589;12.568;99.958;2023-02-01T07:26:35;100586.75;;;36.93;25.93
74230;BME280;62589;12.568;99.958;2023-02-01T07:29:02;100595.16;;;36.93;26.15
74230;BME280;62589;12.568;99.958;2023-02-01T07:31:28;100592.88;;;36.85;24.68
74230;BME280;62589;12.568;99.958;2023-02-01T07:33:54;100590.06;;;36.85;25.00
74230;BME280;62589;12.568;99.958;2023-02-01T07:36:22;100582.47;;;36.85;25.45
74230;BME280;62589;12.568;99.958;2023-02-01T07:38:48;100582.47;;;36.85;25.31
74230;BME280;62589;12.568;99.958;2023-02-01T07:41:15;100576.50;;;36.83;25.62
74230;BME280;62589;12.568;99.958;2023-02-01T07:43:42;100564.88;;;36.85;25.38
74230;BME280;62589;12.568;99.958;2023-02-01T07:46:10;100560.50;;;36.83;25.51
74230;BME280;62589;12.568;99.958;2023-02-01T07:48:40;100561.28;;;36.84;25.73
74230;BME280;62589;12.568;99.958;2023-02-01T07:51:10;100548.88;;;36.85;25.85
74230;BME280;62589;12.568;99.958;2023-02-01T07:53:37;100548.84;;;36.89;25.85
74230;BME280;62589;12.568;99.958;2023-02-01T07:56:09;100541.72;;;36.84;25.49
74230;BME280;62589;12.568;99.958;2023-02-01T07:58:36;100540.13;;;36.83;26.06
74230;BME280;62589;12.568;99.958;2023-02-01T08:01:02;100538.53;;;36.82;25.84
74230;BME280;62589;12.568;99.958;2023-02-01T08:03:40;100531.34;;;36.81;25.26
74230;BME280;62589;12.568;99.958;2023-02-01T08:06:07;100535.31;;;36.83;25.73
74230;BME280;62589;12.568;99.958;2023-02-01T08:08:33;100530.16;;;36.82;26.02
74230;BME280;62589;12.568;99.958;2023-02-01T08:11:01;100529.84;;;36.76;26.25
74230;BME280;62589;12.568;99.958;2023-02-01T08:13:28;100532.22;;;36.78;26.79
74230;BME280;62589;12.568;99.958;2023-02-01T08:15:58;100536.22;;;36.77;27.16
74230;BME280;62589;12.568;99.958;2023-02-01T08:18:26;100533.44;;;36.77;26.54
74230;BME280;62589;12.568;99.958;2023-02-01T08:20:52;100530.28;;;36.75;27.12
74230;BME280;62589;12.568;99.958;2023-02-01T08:23:20;100533.84;;;36.75;27.45
74230;BME280;62589;12.568;99.958;2023-02-01T08:25:46;100547.06;;;36.75;27.70
74230;BME280;62589;12.568;99.958;2023-02-01T08:28:13;100537.50;;;36.69;27.59
74230;BME280;62589;12.568;99.958;2023-02-01T08:30:40;100531.16;;;36.65;27.65
74230;BME280;62589;12.568;99.958;2023-02-01T08:33:08;100546.72;;;36.66;26.79
74230;BME280;62589;12.568;99.958;2023-02-01T08:35:35;100540.44;;;36.58;26.77
74230;BME280;62589;12.568;99.958;2023-02-01T08:38:03;100540.88;;;36.57;28.63
74230;BME280;62589;12.568;99.958;2023-02-01T08:40:33;100537.72;;;36.55;28.93
74230;BME280;62589;12.568;99.958;2023-02-01T08:42:59;100544.50;;;36.54;30.49
74230;BME280;62589;12.568;99.958;2023-02-01T08:45:28;100542.59;;;36.47;29.88
74230;BME280;62589;12.568;99.958;2023-02-01T08:47:58;100539.41;;;36.45;31.06
74230;BME280;62589;12.568;99.958;2023-02-01T08:50:25;100543.41;;;36.44;32.00
74230;BME280;62589;12.568;99.958;2023-02-01T08:52:52;100545.03;;;36.41;32.14
74230;BME280;62589;12.568;99.958;2023-02-01T08:55:19;100539.09;;;36.39;32.92
74230;BME280;62589;12.568;99.958;2023-02-01T08:57:45;100545.94;;;36.35;33.25
74230;BME280;62589;12.568;99.958;2023-02-01T09:00:14;100534.84;;;36.28;32.54
74230;BME280;62589;12.568;99.958;2023-02-01T09:02:41;100540.44;;;36.28;33.13
74230;BME280;62589;12.568;99.958;2023-02-01T09:05:08;100546.44;;;36.26;32.65
74230;BME280;62589;12.568;99.958;2023-02-01T09:07:35;100539.69;;;36.20;33.43
74230;BME280;62589;12.568;99.958;2023-02-01T09:10:02;100548.91;;;36.17;33.91
74230;BME280;62589;12.568;99.958;2023-02-01T09:12:30;100549.75;;;36.14;33.24
74230;BME280;62589;12.568;99.958;2023-02-01T09:14:58;100554.19;;;36.11;34.22
74230;BME280;62589;12.568;99.958;2023-02-01T09:17:27;100547.88;;;36.04;35.11
74230;BME280;62589;12.568;99.958;2023-02-01T09:19:53;100553.06;;;36.02;35.11
74230;BME280;62589;12.568;99.958;2023-02-01T09:22:20;100558.38;;;35.93;35.05
74230;BME280;62589;12.568;99.958;2023-02-01T09:24:46;100552.81;;;35.89;36.04
74230;BME280;62589;12.568;99.958;2023-02-01T09:27:13;100553.66;;;35.83;35.94
74230;BME280;62589;12.568;99.958;2023-02-01T09:29:39;100555.66;;;35.82;36.60
74230;BME280;62589;12.568;99.958;2023-02-01T09:32:05;100561.69;;;35.77;36.61
74230;BME280;62589;12.568;99.958;2023-02-01T09:34:33;100563.69;;;35.76;36.96
74230;BME280;62589;12.568;99.958;2023-02-01T09:37:00;100557.34;;;35.72;37.41
74230;BME280;62589;12.568;99.958;2023-02-01T09:39:27;100566.13;;;35.71;37.18
74230;BME280;62589;12.568;99.958;2023-02-01T09:47:53;100574.22;;;35.55;36.65
74230;BME280;62589;12.568;99.958;2023-02-01T09:50:28;100573.09;;;35.48;35.12
74230;BME280;62589;12.568;99.958;2023-02-01T09:53:02;100575.59;;;35.36;33.72
74230;BME280;62589;12.568;99.958;2023-02-01T09:55:49;100584.41;;;35.31;32.97
74230;BME280;62589;12.568;99.958;2023-02-01T09:58:40;100585.25;;;35.17;34.46
74230;BME280;62589;12.568;99.958;2023-02-01T10:01:21;100582.13;;;35.11;34.61
74230;BME280;62589;12.568;99.958;2023-02-01T10:03:48;100586.53;;;35.05;34.91
74230;BME280;62589;12.568;99.958;2023-02-01T10:26:54;100603.00;;;34.75;39.03
74230;BME280;62589;12.568;99.958;2023-02-01T10:29:26;100603.38;;;34.77;38.46
74230;BME280;62589;12.568;99.958;2023-02-01T10:31:57;100605.44;;;34.66;38.83
74230;BME280;62589;12.568;99.958;2023-02-01T10:34:31;100602.69;;;34.59;39.22
74230;BME280;62589;12.568;99.958;2023-02-01T10:37:29;100600.69;;;34.63;38.66
74230;BME280;62589;12.568;99.958;2023-02-01T10:39:57;100607.88;;;34.57;38.69
74230;BME280;62589;12.568;99.958;2023-02-01T10:42:27;100601.16;;;34.43;38.69
74230;BME280;62589;12.568;99.958;2023-02-01T10:44:59;100604.72;;;34.47;38.86
74230;BME280;62589;12.568;99.958;2023-02-01T10:47:26;100610.31;;;34.44;39.06
74230;BME280;62589;12.568;99.958;2023-02-01T10:53:02;100610.69;;;34.46;38.94
74230;BME280;62589;12.568;99.958;2023-02-01T10:55:48;100616.28;;;34.42;39.00
74230;BME280;62589;12.568;99.958;2023-02-01T10:58:19;100617.47;;;34.41;38.27
74230;BME280;62589;12.568;99.958;2023-02-01T11:00:56;100615.50;;;34.38;38.47
74230;BME280;62589;12.568;99.958;2023-02-01T11:03:41;100621.06;;;34.38;38.29
74230;BME280;62589;12.568;99.958;2023-02-01T11:06:28;100618.69;;;34.40;38.37
74230;BME280;62589;12.568;99.958;2023-02-01T11:08:59;100619.88;;;34.39;38.44
74230;BME280;62589;12.568;99.958;2023-02-01T11:11:27;100626.25;;;34.40;37.93
74230;BME280;62589;12.568;99.958;2023-02-01T11:14:10;100626.63;;;34.38;38.12
74230;BME280;62589;12.568;99.958;2023-02-01T11:16:39;100626.63;;;34.38;37.77
74230;BME280;62589;12.568;99.958;2023-02-01T11:19:06;100630.63;;;34.37;37.94
74230;BME280;62589;12.568;99.958;2023-02-01T11:21:54;100639.38;;;34.39;37.74
74230;BME280;62589;12.568;99.958;2023-02-01T11:24:42;100637.78;;;34.45;37.98
74230;BME280;62589;12.568;99.958;2023-02-01T11:27:19;100642.16;;;34.43;38.04
74230;BME280;62589;12.568;99.958;2023-02-01T11:29:59;100635.00;;;34.42;37.87
74230;BME280;62589;12.568;99.958;2023-02-01T11:32:27;100645.75;;;34.43;38.02
74230;BME280;62589;12.568;99.958;2023-02-01T11:35:01;100652.53;;;34.42;37.89
74230;BME280;62589;12.568;99.958;2023-02-01T11:37:32;100657.31;;;34.42;37.58
74230;BME280;62589;12.568;99.958;2023-02-01T11:40:03;100650.53;;;34.39;37.53
74230;BME280;62589;12.568;99.958;2023-02-01T11:42:30;100653.72;;;34.38;37.24
74230;BME280;62589;12.568;99.958;2023-02-01T11:45:19;100664.47;;;34.39;37.14
74230;BME280;62589;12.568;99.958;2023-02-01T11:47:46;100667.25;;;34.36;37.32
74230;BME280;62589;12.568;99.958;2023-02-01T11:50:19;100663.69;;;34.32;37.20
74230;BME280;62589;12.568;99.958;2023-02-01T11:58:51;100675.66;;;34.29;36.65
74230;BME280;62589;12.568;99.958;2023-02-01T12:10:32;100689.94;;;34.13;35.35
74230;BME280;62589;12.568;99.958;2023-02-01T12:13:32;100701.88;;;34.10;35.40
74230;BME280;62589;12.568;99.958;2023-02-01T12:28:24;100721.78;;;33.94;34.87
74230;BME280;62589;12.568;99.958;2023-02-01T12:34:21;100739.31;;;33.88;34.67
74230;BME280;62589;12.568;99.958;2023-02-01T12:43:03;100748.00;;;33.75;34.09
74230;BME280;62589;12.568;99.958;2023-02-01T12:45:41;100747.59;;;33.66;33.83
74230;BME280;62589;12.568;99.958;2023-02-01T12:51:19;100761.91;;;33.61;33.79
74230;BME280;62589;12.568;99.958;2023-02-01T12:54:17;100775.81;;;33.58;33.43
74230;BME280;62589;12.568;99.958;2023-02-01T12:56:57;100776.97;;;33.50;33.53
74230;BME280;62589;12.568;99.958;2023-02-01T12:59:49;100784.50;;;33.49;33.86
74230;BME280;62589;12.568;99.958;2023-02-01T13:02:47;100791.66;;;33.46;33.90
74230;BME280;62589;12.568;99.958;2023-02-01T13:05:29;100792.06;;;33.41;33.82
74230;BME280;62589;12.568;99.958;2023-02-01T13:08:06;100799.56;;;33.34;34.28
74230;BME280;62589;12.568;99.958;2023-02-01T13:10:46;100804.34;;;33.33;33.91
74230;BME280;62589;12.568;99.958;2023-02-01T13:13:44;100811.47;;;33.27;34.31
74230;BME280;62589;12.568;99.958;2023-02-01T13:16:30;100808.25;;;33.22;34.06
74230;BME280;62589;12.568;99.958;2023-02-01T13:22:05;100812.94;;;33.10;34.63
74230;BME280;62589;12.568;99.958;2023-02-01T13:24:50;100817.69;;;33.06;34.97
74230;BME280;62589;12.568;99.958;2023-02-01T13:27:18;100810.94;;;33.04;35.36
74230;BME280;62589;12.568;99.958;2023-02-01T13:35:54;100825.59;;;32.97;35.81
74230;BME280;62589;12.568;99.958;2023-02-01T13:44:26;100832.66;;;32.88;36.54
74230;BME280;62589;12.568;99.958;2023-02-01T13:46:59;100837.41;;;32.84;36.94
74230;BME280;62589;12.568;99.958;2023-02-01T13:49:31;100834.22;;;32.82;37.12
74230;BME280;62589;12.568;99.958;2023-02-01T13:51:59;100834.22;;;32.82;36.84
74230;BME280;62589;12.568;99.958;2023-02-01T13:54:33;100842.94;;;32.80;37.13
74230;BME280;62589;12.568;99.958;2023-02-01T13:57:01;100848.50;;;32.80;37.35
74230;BME280;62589;12.568;99.958;2023-02-01T14:02:37;100841.78;;;32.81;38.23
74230;BME280;62589;12.568;99.958;2023-02-01T14:05:04;100848.09;;;32.78;38.14
74230;BME280;62589;12.568;99.958;2023-02-01T14:07:33;100852.06;;;32.77;38.17
74230;BME280;62589;12.568;99.958;2023-02-01T14:13:11;100857.63;;;32.77;38.22
74230;BME280;62589;12.568;99.958;2023-02-01T14:15:38;100861.19;;;32.77;38.38
74230;BME280;62589;12.568;99.958;2023-02-01T14:21:28;100860.81;;;32.79;38.46
74230;BME280;62589;12.568;99.958;2023-02-01T14:26:52;100857.94;;;32.72;38.99
74230;BME280;62589;12.568;99.958;2023-02-01T14:29:40;100865.94;;;32.73;39.00
74230;BME280;62589;12.568;99.958;2023-02-01T14:32:19;100858.72;;;32.69;38.92
74230;BME280;62589;12.568;99.958;2023-02-01T14:34:52;100862.66;;;32.68;39.01
74230;BME280;62589;12.568;99.958;2023-02-01T14:37:29;100869.16;;;32.79;38.85
74230;BME280;62589;12.568;99.958;2023-02-01T14:40:16;100863.44;;;32.65;38.95
74230;BME280;62589;12.568;99.958;2023-02-01T14:42:48;100860.66;;;32.65;39.30
74230;BME280;62589;12.568;99.958;2023-02-01T14:45:47;100856.31;;;32.67;39.50
74230;BME280;62589;12.568;99.958;2023-02-01T14:48:41;100854.72;;;32.66;39.88
74230;BME280;62589;12.568;99.958;2023-02-01T14:51:13;100856.28;;;32.60;40.00
74230;BME280;62589;12.568;99.958;2023-02-01T14:53:41;100854.66;;;32.59;39.81
74230;BME280;62589;12.568;99.958;2023-02-01T14:56:14;100845.88;;;32.54;39.83
74230;BME280;62589;12.568;99.958;2023-02-01T14:58:56;100859.00;;;32.57;40.41
74230;BME280;62589;12.568;99.958;2023-02-01T15:01:33;100857.00;;;32.54;40.29